Time;durP1;ratioP1;P1;durP2;ratioP2;P2;SDS_P1;SDS_P2;PMS_P1;PMS_P2;Temp;Humidity;BMP_temperature;BMP_pressure;BME280_temperature;BME280_humidity;BME280_pressure;Samples;Min_cycle;Max_cycle;Signal;HPM_P1;HPM_P2
2022/12/02 00:02:03;;;;;;;47.85;30.00;;;103.10;2227.20;;;;;;5094710;28;20052;-85
2022/12/02 00:04:29;;;;;;;37.88;24.02;;;103.10;2227.20;;;;;;5081163;28;20021;-89
2022/12/02 00:06:57;;;;;;;58.08;37.05;;;103.00;2227.20;;;;;;5075990;28;20024;-87
2022/12/02 00:09:25;;;;;;;70.63;45.85;;;103.00;2227.20;;;;;;5094746;28;20032;-86
2022/12/02 00:11:51;;;;;;;54.20;34.22;;;102.90;2227.20;;;;;;5093850;28;20036;-86
2022/12/02 00:14:24;;;;;;;47.35;29.85;;;102.80;2227.20;;;;;;5078218;28;20053;-86
2022/12/02 00:16:49;;;;;;;;;;;102.80;2227.20;;;;;;5091197;28;20067;-86
2022/12/02 00:19:15;;;;;;;39.97;25.55;;;102.90;2227.20;;;;;;5073205;28;20264;-86
2022/12/02 00:21:41;;;;;;;36.38;22.85;;;102.90;2227.20;;;;;;5072967;28;20051;-86
2022/12/02 00:24:07;;;;;;;33.42;22.30;;;102.80;2227.20;;;;;;5074624;28;20468;-87
2022/12/02 00:26:33;;;;;;;34.97;23.02;;;102.90;2227.20;;;;;;5077727;28;20366;-84
2022/12/02 00:28:59;;;;;;;32.35;22.63;;;102.90;2227.20;;;;;;5093809;28;20024;-86
2022/12/02 00:31:25;;;;;;;37.70;22.23;;;103.00;2227.20;;;;;;5078305;28;20036;-87
2022/12/02 00:33:50;;;;;;;38.30;22.67;;;103.00;2227.20;;;;;;5086317;28;20062;-87
2022/12/02 00:36:16;;;;;;;39.03;23.48;;;103.00;2227.20;;;;;;5097300;28;20071;-86
2022/12/02 00:38:42;;;;;;;51.33;31.55;;;103.00;2227.20;;;;;;5097153;28;20035;-86
2022/12/02 00:41:08;;;;;;;45.33;28.15;;;103.00;2227.20;;;;;;5097391;28;20387;-86
2022/12/02 00:46:36;;;;;;;58.53;34.78;;;103.10;2227.20;;;;;;5058328;28;20052;-85
2022/12/02 00:49:15;;;;;;;33.65;22.08;;;103.00;2227.20;;;;;;5085514;28;20033;-85
2022/12/02 00:51:42;;;;;;;32.70;18.83;;;103.00;2227.20;;;;;;5075477;28;20052;-84
2022/12/02 00:54:09;;;;;;;41.00;25.17;;;102.90;2227.20;;;;;;5075480;28;20051;-85
2022/12/02 00:56:35;;;;;;;44.72;26.60;;;102.60;2227.20;;;;;;5077570;28;20111;-83
2022/12/02 00:59:02;;;;;;;46.70;27.60;;;102.90;2227.20;;;;;;5075766;28;20028;-86
2022/12/02 01:01:28;;;;;;;96.72;48.40;;;103.00;2227.20;;;;;;5076655;28;20028;-85
2022/12/02 01:03:54;;;;;;;72.15;36.88;;;102.90;2227.20;;;;;;5076054;28;20514;-86
2022/12/02 01:06:21;;;;;;;99.68;53.70;;;102.90;2227.20;;;;;;5076064;28;20024;-85
2022/12/02 01:08:47;;;;;;;92.35;51.80;;;102.80;2227.20;;;;;;5076239;28;20024;-85
2022/12/02 01:11:13;;;;;;;111.22;60.25;;;103.00;2227.20;;;;;;5075983;28;20054;-85
2022/12/02 01:13:39;;;;;;;89.75;51.97;;;103.00;2227.20;;;;;;5072512;28;20032;-86
2022/12/02 01:16:05;;;;;;;65.80;36.83;;;103.00;2227.20;;;;;;5056969;28;20025;-86
2022/12/02 01:18:31;;;;;;;44.00;28.30;;;103.00;2227.20;;;;;;5072327;28;20033;-86
2022/12/02 01:20:57;;;;;;;43.83;28.63;;;103.10;2227.20;;;;;;5073247;28;20561;-87
2022/12/02 01:23:22;;;;;;;41.97;27.52;;;103.10;2227.20;;;;;;5072961;28;20128;-86
2022/12/02 01:25:48;;;;;;;37.88;24.17;;;103.00;2227.20;;;;;;5072228;28;20159;-86
2022/12/02 01:28:15;;;;;;;33.50;23.17;;;103.00;2227.20;;;;;;5071993;28;20048;-85
2022/12/02 01:30:41;;;;;;;52.65;35.28;;;102.80;2227.20;;;;;;5072156;28;20029;-86
2022/12/02 01:33:07;;;;;;;36.75;24.60;;;102.90;2227.20;;;;;;5072347;28;20029;-85
2022/12/02 01:35:33;;;;;;;54.80;34.67;;;102.80;2227.20;;;;;;5071554;28;20115;-86
2022/12/02 01:37:59;;;;;;;36.38;25.60;;;102.80;2227.20;;;;;;5071587;28;20029;-85
2022/12/02 01:40:26;;;;;;;29.50;21.30;;;102.80;2227.20;;;;;;5072139;28;20025;-85
2022/12/02 01:42:52;;;;;;;34.60;22.95;;;102.80;2227.20;;;;;;5071523;28;20059;-85
2022/12/02 01:45:19;;;;;;;31.58;21.02;;;102.80;2227.20;;;;;;5071594;28;20025;-85
2022/12/02 01:47:45;;;;;;;26.95;17.85;;;102.90;2227.20;;;;;;5071702;28;20036;-86
2022/12/02 01:50:13;;;;;;;27.00;18.42;;;102.90;2227.20;;;;;;5071565;28;20033;-86
2022/12/02 01:52:39;;;;;;;39.35;25.63;;;102.90;2227.20;;;;;;5071391;28;20037;-86
2022/12/02 01:55:09;;;;;;;24.70;18.27;;;102.90;2227.20;;;;;;5071239;28;20032;-85
2022/12/02 01:57:35;;;;;;;16.77;11.75;;;102.80;2227.20;;;;;;5071244;28;20480;-86
2022/12/02 02:00:01;;;;;;;26.13;16.58;;;102.80;2227.20;;;;;;5071281;28;20036;-85
2022/12/02 02:02:35;;;;;;;25.65;16.80;;;102.80;2227.20;;;;;;5071158;28;20043;-86
2022/12/02 02:05:08;;;;;;;22.90;15.38;;;102.90;2227.20;;;;;;5072293;28;20060;-85
2022/12/02 02:07:35;;;;;;;22.27;14.05;;;103.00;2227.20;;;;;;5055758;28;20029;-86
2022/12/02 02:10:02;;;;;;;20.33;14.25;;;103.00;2227.20;;;;;;5071056;28;20029;-86
2022/12/02 02:12:29;;;;;;;19.63;12.65;;;103.10;2227.20;;;;;;5070843;28;20079;-85
2022/12/02 02:14:55;;;;;;;18.10;12.32;;;102.80;2227.20;;;;;;5055233;28;20021;-85
2022/12/02 02:17:22;;;;;;;19.08;12.50;;;103.00;2227.20;;;;;;5055498;28;20058;-84
2022/12/02 02:19:47;;;;;;;22.23;14.90;;;103.20;2227.20;;;;;;5055188;28;20029;-86
2022/12/02 02:22:18;;;;;;;19.50;13.35;;;102.90;2227.20;;;;;;5070412;28;20107;-86
2022/12/02 02:24:44;;;;;;;21.23;14.18;;;103.00;2227.20;;;;;;5055113;28;20036;-85
2022/12/02 02:27:10;;;;;;;19.30;11.90;;;103.00;1920.00;;;;;;5070481;28;20021;-86
2022/12/02 02:29:36;;;;;;;17.60;10.57;;;103.10;2227.20;;;;;;5068484;28;20033;-85
2022/12/02 02:32:03;;;;;;;21.25;10.98;;;103.10;2227.20;;;;;;5073523;28;20127;-85
2022/12/02 02:34:29;;;;;;;14.30;7.45;;;103.00;2227.20;;;;;;5072857;28;20031;-85
2022/12/02 02:36:55;;;;;;;10.20;6.40;;;103.10;2227.20;;;;;;5073400;28;20032;-85
2022/12/02 02:39:22;;;;;;;15.35;9.25;;;103.10;2227.20;;;;;;5074067;28;20028;-85
2022/12/02 02:41:48;;;;;;;13.90;8.73;;;103.10;2227.20;;;;;;5076088;28;20037;-80
2022/12/02 02:44:14;;;;;;;11.45;7.13;;;103.10;2227.20;;;;;;5083386;28;20079;-81
2022/12/02 02:46:41;;;;;;;8.88;6.05;;;103.10;2227.20;;;;;;5084259;28;20024;-81
2022/12/02 02:49:08;;;;;;;12.90;8.13;;;103.00;2227.20;;;;;;5076082;28;20029;-86
2022/12/02 02:51:34;;;;;;;13.02;8.32;;;103.10;2227.20;;;;;;5073715;28;20067;-86
2022/12/02 02:53:59;;;;;;;10.68;7.03;;;103.10;2227.20;;;;;;5074054;28;20028;-87
2022/12/02 02:56:25;;;;;;;11.13;7.10;;;103.10;2227.20;;;;;;5073943;28;20027;-87
2022/12/02 02:58:52;;;;;;;8.77;6.15;;;103.20;2227.20;;;;;;5073814;28;20063;-87
2022/12/02 03:01:26;;;;;;;11.23;8.27;;;103.00;2227.20;;;;;;5073527;28;20081;-85
2022/12/02 03:03:59;;;;;;;11.82;8.05;;;103.10;2227.20;;;;;;5073303;28;20457;-85
2022/12/02 03:06:27;;;;;;;12.70;7.82;;;103.10;2227.20;;;;;;5074600;28;20028;-86
2022/12/02 03:08:54;;;;;;;10.70;5.88;;;103.10;2227.20;;;;;;5073495;28;20067;-86
2022/12/02 03:11:20;;;;;;;10.35;6.57;;;103.20;2227.20;;;;;;5073266;28;20032;-87
2022/12/02 03:13:49;;;;;;;12.05;6.97;;;103.20;2227.20;;;;;;5073169;28;20111;-86
2022/12/02 03:16:17;;;;;;;9.02;5.25;;;103.20;2227.20;;;;;;5073286;28;20020;-86
2022/12/02 03:18:45;;;;;;;6.28;3.97;;;103.10;2227.20;;;;;;5073275;28;20032;-85
2022/12/02 03:21:12;;;;;;;9.23;6.35;;;103.10;2227.20;;;;;;5074090;28;20428;-85
2022/12/02 03:23:38;;;;;;;20.17;12.88;;;103.10;2227.20;;;;;;5073062;28;20108;-85
2022/12/02 03:26:05;;;;;;;21.08;12.40;;;103.00;2227.20;;;;;;5074351;28;20078;-85
2022/12/02 03:28:32;;;;;;;12.70;7.40;;;103.00;2227.20;;;;;;5072961;28;20031;-86
2022/12/02 03:30:58;;;;;;;9.82;6.13;;;103.10;2227.20;;;;;;5073028;28;20066;-85
2022/12/02 03:33:24;;;;;;;17.02;8.52;;;103.10;2227.20;;;;;;5073019;28;20059;-86
2022/12/02 03:35:50;;;;;;;17.50;9.23;;;103.10;2227.20;;;;;;5072680;28;20123;-85
2022/12/02 03:38:16;;;;;;;21.65;11.02;;;103.10;2227.20;;;;;;5072987;28;20107;-86
2022/12/02 03:40:43;;;;;;;11.93;6.80;;;103.10;2227.20;;;;;;5073047;28;20033;-86
2022/12/02 03:43:08;;;;;;;11.70;7.07;;;103.10;2227.20;;;;;;5072867;28;20033;-85
2022/12/02 03:45:35;;;;;;;12.32;7.15;;;103.10;2227.20;;;;;;5072960;28;20032;-86
2022/12/02 03:48:03;;;;;;;18.02;6.10;;;103.10;2227.20;;;;;;5074088;28;20025;-86
2022/12/02 03:50:29;;;;;;;7.95;4.45;;;103.10;2227.20;;;;;;5072721;28;20031;-87
2022/12/02 03:52:55;;;;;;;8.55;4.22;;;103.10;2227.20;;;;;;5072975;28;20025;-86
2022/12/02 03:55:21;;;;;;;6.85;4.32;;;102.90;2227.20;;;;;;5072869;28;20033;-86
2022/12/02 03:57:46;;;;;;;7.03;3.90;;;102.90;2227.20;;;;;;5072851;28;20020;-86
2022/12/02 04:00:13;;;;;;;8.85;5.65;;;103.00;2227.20;;;;;;5076377;28;20075;-87
2022/12/02 04:02:39;;;;;;;8.50;5.53;;;103.00;2227.20;;;;;;5077098;28;20028;-86
2022/12/02 04:05:05;;;;;;;11.13;6.38;;;103.00;2227.20;;;;;;5076678;28;20031;-86
2022/12/02 04:07:31;;;;;;;10.60;7.07;;;103.10;2227.20;;;;;;5077125;28;20024;-86
2022/12/02 04:09:57;;;;;;;7.72;4.93;;;103.10;2227.20;;;;;;5076631;28;20555;-87
2022/12/02 04:12:22;;;;;;;7.95;4.43;;;103.00;2227.20;;;;;;5077791;28;20032;-86
2022/12/02 04:14:48;;;;;;;11.57;6.00;;;103.10;2227.20;;;;;;5072604;28;20029;-85
2022/12/02 04:17:14;;;;;;;13.63;7.57;;;103.10;2227.20;;;;;;5056220;28;20060;-87
2022/12/02 04:19:40;;;;;;;14.48;8.57;;;103.10;2227.20;;;;;;5073056;28;20029;-86
2022/12/02 04:22:05;;;;;;;14.65;8.50;;;103.10;2227.20;;;;;;5072851;28;20052;-86
2022/12/02 04:24:31;;;;;;;14.45;7.80;;;103.10;2227.20;;;;;;5073155;28;20123;-86
2022/12/02 04:26:57;;;;;;;16.10;6.75;;;103.10;2227.20;;;;;;5073275;28;20499;-86
2022/12/02 04:29:23;;;;;;;10.10;5.55;;;103.10;2227.20;;;;;;5072980;28;20110;-86
2022/12/02 04:31:48;;;;;;;9.57;6.38;;;103.00;2227.20;;;;;;5072992;28;20570;-86
2022/12/02 04:34:14;;;;;;;6.80;5.03;;;103.00;2227.20;;;;;;5072857;28;20021;-86
2022/12/02 04:36:40;;;;;;;5.18;3.45;;;102.90;2227.20;;;;;;5075543;28;20112;-86
2022/12/02 04:39:06;;;;;;;9.40;5.88;;;102.90;2227.20;;;;;;5076282;28;20024;-86
2022/12/02 04:41:31;;;;;;;15.57;6.53;;;102.90;2227.20;;;;;;5075857;28;20032;-87
2022/12/02 04:43:57;;;;;;;16.25;8.05;;;102.80;2227.20;;;;;;5076271;28;20495;-87
2022/12/02 04:46:23;;;;;;;29.17;13.80;;;102.90;2227.20;;;;;;5075969;28;20025;-87
2022/12/02 04:48:49;;;;;;;26.83;10.65;;;102.90;2227.20;;;;;;5075984;28;20025;-86
2022/12/02 04:51:14;;;;;;;28.23;14.38;;;103.00;2227.20;;;;;;5076077;28;20032;-87
2022/12/02 04:53:40;;;;;;;28.58;15.48;;;103.00;2227.20;;;;;;5076818;28;20025;-87
2022/12/02 04:56:06;;;;;;;20.23;12.65;;;103.00;2227.20;;;;;;5076119;28;20025;-86
2022/12/02 04:58:32;;;;;;;23.58;14.18;;;102.90;2227.20;;;;;;5076035;28;20025;-86
2022/12/02 05:00:58;;;;;;;39.10;17.48;;;103.00;2227.20;;;;;;5075747;28;20029;-86
2022/12/02 05:03:23;;;;;;;27.08;15.10;;;103.00;2227.20;;;;;;5075778;28;20040;-88
2022/12/02 05:05:49;;;;;;;19.13;10.77;;;103.00;2227.20;;;;;;5075284;28;20054;-86
2022/12/02 05:08:15;;;;;;;16.10;9.15;;;103.00;2227.20;;;;;;5075634;28;20029;-87
2022/12/02 05:10:41;;;;;;;14.43;8.35;;;103.00;2227.20;;;;;;5074986;28;20074;-87
2022/12/02 05:13:06;;;;;;;11.75;7.72;;;103.00;2227.20;;;;;;5075634;28;20035;-87
2022/12/02 05:15:32;;;;;;;19.88;10.27;;;103.00;2227.20;;;;;;5075671;28;20036;-86
2022/12/02 05:17:58;;;;;;;19.70;11.07;;;103.00;2227.20;;;;;;5075526;28;20472;-86
2022/12/02 05:20:24;;;;;;;17.05;9.95;;;103.00;2227.20;;;;;;5075183;28;20036;-86
2022/12/02 05:22:49;;;;;;;13.63;9.20;;;103.00;2227.20;;;;;;5076234;28;20086;-87
2022/12/02 05:25:15;;;;;;;13.20;8.20;;;103.00;2227.20;;;;;;5075459;28;20103;-86
2022/12/02 05:27:41;;;;;;;15.05;10.43;;;102.90;2227.20;;;;;;5075067;28;20021;-86
2022/12/02 05:30:07;;;;;;;29.80;16.58;;;103.00;2227.20;;;;;;5075191;28;20033;-86
2022/12/02 05:32:33;;;;;;;33.97;17.65;;;103.00;2227.20;;;;;;5076911;28;20499;-85
2022/12/02 05:34:59;;;;;;;39.55;23.17;;;103.00;2227.20;;;;;;5074955;28;20081;-84
2022/12/02 05:37:25;;;;;;;25.55;16.05;;;103.00;2227.20;;;;;;5076951;28;20115;-85
2022/12/02 05:39:52;;;;;;;31.88;20.63;;;103.10;2227.20;;;;;;5075083;28;20027;-86
2022/12/02 05:42:18;;;;;;;33.75;22.02;;;103.10;2227.20;;;;;;5074698;28;20024;-86
2022/12/02 05:44:44;;;;;;;38.90;22.13;;;103.00;2227.20;;;;;;5074932;28;20029;-86
2022/12/02 05:47:12;;;;;;;28.38;16.75;;;103.00;2227.20;;;;;;5076006;28;20028;-86
2022/12/02 05:49:39;;;;;;;20.80;13.45;;;103.00;2227.20;;;;;;5074130;28;20033;-86
2022/12/02 05:52:28;;;;;;;16.70;11.38;;;103.00;2227.20;;;;;;5074870;28;20462;-87
2022/12/02 05:54:57;;;;;;;18.80;12.43;;;103.00;2227.20;;;;;;5074733;28;20481;-85
2022/12/02 05:57:25;;;;;;;25.77;16.95;;;103.00;2227.20;;;;;;5074674;28;20024;-85
2022/12/02 06:00:00;;;;;;;27.98;17.88;;;103.00;2227.20;;;;;;5074830;28;20082;-86
2022/12/02 06:02:35;;;;;;;21.13;13.88;;;103.00;2227.20;;;;;;5074956;28;20024;-87
2022/12/02 06:05:00;;;;;;;26.63;16.70;;;103.00;2227.20;;;;;;5074678;28;20491;-86
2022/12/02 06:07:26;;;;;;;29.17;19.08;;;103.00;2227.20;;;;;;5074521;28;20029;-87
2022/12/02 06:09:55;;;;;;;29.30;19.08;;;103.00;2227.20;;;;;;5074307;28;20031;-87
2022/12/02 06:12:20;;;;;;;28.67;19.23;;;103.10;2227.20;;;;;;5075722;28;20052;-87
2022/12/02 06:14:53;;;;;;;26.23;17.90;;;103.10;2227.20;;;;;;5074260;28;20035;-87
2022/12/02 06:17:20;;;;;;;22.45;15.13;;;103.10;2227.20;;;;;;5074469;28;20036;-86
2022/12/02 06:19:56;;;;;;;26.92;16.88;;;103.10;2227.20;;;;;;5074205;28;20060;-87
2022/12/02 06:22:33;;;;;;;47.53;30.30;;;103.10;2227.20;;;;;;5073006;28;20044;-86
2022/12/02 06:25:01;;;;;;;26.77;15.68;;;103.10;2227.20;;;;;;5074334;28;20073;-85
2022/12/02 06:27:27;;;;;;;21.88;14.45;;;103.00;2227.20;;;;;;5074394;28;20063;-88
2022/12/02 06:29:58;;;;;;;48.40;28.83;;;103.00;2227.20;;;;;;5073856;28;20025;-87
2022/12/02 06:32:39;;;;;;;37.35;25.45;;;103.10;1920.00;;;;;;5073815;28;20028;-86
2022/12/02 06:35:23;;;;;;;36.70;24.52;;;103.00;2227.20;;;;;;5074073;28;20024;-87
2022/12/02 06:37:53;;;;;;;37.35;25.15;;;103.10;2227.20;;;;;;5074108;28;20028;-86
2022/12/02 06:40:33;;;;;;;32.20;22.70;;;103.10;2227.20;;;;;;5075279;28;20464;-86
2022/12/02 06:43:01;;;;;;;36.03;22.55;;;103.20;1894.40;;;;;;5073894;28;20483;-87
2022/12/02 06:45:34;;;;;;;37.47;23.33;;;103.10;2227.20;;;;;;5073768;28;20028;-88
2022/12/02 06:48:08;;;;;;;37.63;24.38;;;103.20;2227.20;;;;;;5073866;28;20491;-87
2022/12/02 06:50:39;;;;;;;42.42;27.73;;;103.20;2227.20;;;;;;5074056;28;20035;-86
2022/12/02 06:53:49;;;;;;;36.85;23.35;;;103.20;2227.20;;;;;;5073924;28;20025;-87
2022/12/02 06:56:23;;;;;;;27.30;15.90;;;103.20;2227.20;;;;;;5070492;28;20071;-86
2022/12/02 06:59:01;;;;;;;34.58;20.13;;;103.10;2227.20;;;;;;5073762;28;20032;-87
2022/12/02 07:01:27;;;;;;;49.58;28.33;;;103.20;2227.20;;;;;;5074806;28;20028;-87
2022/12/02 07:04:31;;;;;;;29.88;18.23;;;103.20;1920.00;;;;;;5075259;28;20036;-87
2022/12/02 07:07:20;;;;;;;31.95;18.30;;;103.20;2227.20;;;;;;5087483;28;20100;-82
2022/12/02 07:09:59;;;;;;;37.60;23.15;;;103.10;2227.20;;;;;;5079215;28;20033;-80
2022/12/02 07:12:41;;;;;;;34.50;21.92;;;103.10;2227.20;;;;;;5083760;28;20028;-86
2022/12/02 07:15:26;;;;;;;30.50;17.73;;;103.10;2227.20;;;;;;5061174;28;20492;-87
2022/12/02 07:17:55;;;;;;;30.25;17.77;;;103.20;2227.20;;;;;;5053883;28;20064;-86
2022/12/02 07:20:36;;;;;;;34.97;22.90;;;103.20;2227.20;;;;;;5053182;28;20559;-86
2022/12/02 07:23:20;;;;;;;38.08;23.75;;;103.20;2227.20;;;;;;5053452;28;20045;-86
2022/12/02 07:25:59;;;;;;;34.65;19.42;;;103.30;2227.20;;;;;;5054176;28;20021;-85
2022/12/02 07:28:39;;;;;;;47.85;22.83;;;103.30;2227.20;;;;;;5054231;28;20029;-85
2022/12/02 07:31:26;;;;;;;78.53;36.75;;;103.20;2227.20;;;;;;5054082;28;20028;-86
2022/12/02 07:33:52;;;;;;;55.05;27.65;;;103.20;2227.20;;;;;;5053049;28;20040;-87
2022/12/02 07:36:18;;;;;;;52.75;28.45;;;102.90;2227.20;;;;;;5053270;28;20539;-86
2022/12/02 07:38:44;;;;;;;31.35;20.02;;;103.10;2227.20;;;;;;5053206;28;20078;-86
2022/12/02 07:41:10;;;;;;;52.47;30.90;;;103.10;2227.20;;;;;;5054566;28;20025;-87
2022/12/02 07:43:36;;;;;;;73.40;40.53;;;103.00;2227.20;;;;;;5052872;28;20037;-86
2022/12/02 07:46:02;;;;;;;65.25;36.65;;;103.00;2227.20;;;;;;5052597;28;20027;-87
2022/12/02 07:48:28;;;;;;;294.83;159.90;;;103.00;2227.20;;;;;;5053988;28;20033;-86
2022/12/02 07:50:53;;;;;;;51.88;34.03;;;103.00;2227.20;;;;;;5052700;28;20075;-87
2022/12/02 07:53:19;;;;;;;38.53;23.48;;;103.10;2227.20;;;;;;5052937;28;20468;-86
2022/12/02 07:55:45;;;;;;;26.65;16.88;;;103.20;2227.20;;;;;;5070688;28;20013;-86
2022/12/02 07:58:11;;;;;;;30.85;17.25;;;103.20;2227.20;;;;;;5077720;28;20013;-85
2022/12/02 08:00:36;;;;;;;44.53;27.02;;;103.20;2227.20;;;;;;5077622;28;20025;-85
2022/12/02 08:03:02;;;;;;;30.63;20.33;;;103.30;2227.20;;;;;;5065527;28;20060;-86
2022/12/02 08:05:28;;;;;;;35.05;21.13;;;103.20;2227.20;;;;;;5053893;28;20025;-86
2022/12/02 08:07:54;;;;;;;36.72;20.73;;;103.30;2227.20;;;;;;5054050;28;20029;-86
2022/12/02 08:10:20;;;;;;;45.40;27.92;;;103.30;2227.20;;;;;;5054403;28;20021;-85
2022/12/02 08:12:46;;;;;;;46.70;28.45;;;103.30;2227.20;;;;;;5054063;28;20033;-87
2022/12/02 08:15:13;;;;;;;41.90;29.00;;;103.20;2227.20;;;;;;5053496;28;20052;-86
2022/12/02 08:17:39;;;;;;;39.05;24.63;;;128.10;2252.80;;;;;;5053740;28;20112;-86
2022/12/02 08:20:06;;;;;;;46.00;26.00;;;128.10;2252.80;;;;;;5052700;28;20029;-85
2022/12/02 08:22:32;;;;;;;39.97;23.92;;;128.10;2252.80;;;;;;5052929;28;20052;-85
2022/12/02 08:24:58;;;;;;;44.85;29.02;;;128.10;2252.80;;;;;;5052993;28;20567;-86
2022/12/02 08:27:24;;;;;;;41.15;27.63;;;128.10;2252.80;;;;;;5052768;28;20021;-85
2022/12/02 08:29:51;;;;;;;41.05;24.52;;;128.20;2252.80;;;;;;5069097;28;20057;-84
2022/12/02 08:32:17;;;;;;;46.25;29.60;;;128.20;2252.80;;;;;;5052644;28;20033;-86
2022/12/02 08:34:43;;;;;;;34.85;22.48;;;128.30;2252.80;;;;;;5052476;28;20017;-86
2022/12/02 08:37:10;;;;;;;53.75;30.25;;;128.20;2252.80;;;;;;5052451;28;20029;-87
2022/12/02 08:39:36;;;;;;;37.70;23.05;;;128.30;2252.80;;;;;;5052517;28;20032;-86
2022/12/02 08:42:02;;;;;;;41.72;26.42;;;128.40;2176.00;;;;;;5052420;28;20040;-86
2022/12/02 08:44:28;;;;;;;39.38;24.80;;;128.40;2252.80;;;;;;5052294;28;20029;-86
2022/12/02 08:46:54;;;;;;;67.47;40.85;;;128.40;2252.80;;;;;;5054904;28;20083;-86
2022/12/02 08:49:20;;;;;;;86.25;50.55;;;128.30;2252.80;;;;;;5056077;28;20419;-86
2022/12/02 08:51:46;;;;;;;44.83;31.83;;;128.60;2252.80;;;;;;5055831;28;20025;-86
2022/12/02 08:54:14;;;;;;;43.47;30.83;;;128.30;2252.80;;;;;;5055852;28;20051;-86
2022/12/02 08:56:40;;;;;;;57.67;32.30;;;128.20;2252.80;;;;;;5055742;28;20029;-86
2022/12/02 08:59:06;;;;;;;46.35;29.13;;;128.20;2252.80;;;;;;5056821;28;20021;-86
2022/12/02 09:01:31;;;;;;;44.92;28.30;;;128.20;2252.80;;;;;;5056177;28;20021;-86
2022/12/02 09:03:57;;;;;;;51.13;32.70;;;128.30;2252.80;;;;;;5056066;28;20393;-87
2022/12/02 09:06:24;;;;;;;49.08;30.42;;;128.40;2252.80;;;;;;5056447;28;20112;-86
2022/12/02 09:08:50;;;;;;;50.97;30.92;;;128.50;2252.80;;;;;;5056277;28;20025;-85
2022/12/02 09:11:16;;;;;;;48.13;29.35;;;128.50;2252.80;;;;;;5056052;28;20028;-86
2022/12/02 09:13:41;;;;;;;49.42;33.85;;;128.60;2252.80;;;;;;5055948;28;20040;-86
2022/12/02 09:16:08;;;;;;;66.57;42.95;;;128.60;2252.80;;;;;;5055668;28;20385;-86
2022/12/02 09:18:33;;;;;;;51.53;30.55;;;128.70;2252.80;;;;;;5055407;28;20025;-87
2022/12/02 09:20:59;;;;;;;39.63;27.10;;;128.70;1868.80;;;;;;5055316;28;20056;-85
2022/12/02 09:23:27;;;;;;;60.58;34.33;;;128.60;2252.80;;;;;;5055731;28;20124;-85
2022/12/02 09:25:53;;;;;;;60.78;37.22;;;128.60;2252.80;;;;;;5056306;28;20031;-87
2022/12/02 09:28:20;;;;;;;59.17;37.50;;;128.70;2252.80;;;;;;5055134;28;20119;-86
2022/12/02 09:30:47;;;;;;;47.08;31.10;;;128.80;2252.80;;;;;;5055139;28;20027;-86
2022/12/02 09:33:13;;;;;;;50.65;32.72;;;128.70;2252.80;;;;;;5055063;28;20526;-86
2022/12/02 09:35:39;;;;;;;44.17;28.52;;;128.80;2252.80;;;;;;5055111;28;20025;-85
2022/12/02 09:38:04;;;;;;;39.30;24.10;;;128.80;2252.80;;;;;;5054975;28;20059;-86
2022/12/02 09:40:31;;;;;;;43.88;26.90;;;128.70;1868.80;;;;;;5056058;28;20025;-87
2022/12/02 09:42:58;;;;;;;41.45;27.23;;;128.90;2252.80;;;;;;5054806;28;20618;-86
2022/12/02 09:45:23;;;;;;;60.08;39.90;;;128.60;2252.80;;;;;;5054908;28;20032;-86
2022/12/02 09:47:49;;;;;;;44.42;29.50;;;128.90;2252.80;;;;;;5054672;28;20029;-86
2022/12/02 09:50:16;;;;;;;41.60;27.73;;;153.70;2252.80;;;;;;5055047;28;20025;-85
2022/12/02 09:52:43;;;;;;;49.80;32.00;;;153.70;2252.80;;;;;;5054763;28;20122;-85
2022/12/02 09:55:15;;;;;;;42.35;26.33;;;153.70;2252.80;;;;;;5054277;28;20025;-82
2022/12/02 09:57:42;;;;;;;60.65;47.55;;;153.90;1894.40;;;;;;5054226;28;20115;-83
2022/12/02 10:00:18;;;;;;;40.90;27.52;;;153.80;2252.80;;;;;;5055986;28;20468;-83
2022/12/02 10:02:46;;;;;;;42.80;27.55;;;153.90;2252.80;;;;;;5054630;28;20518;-85
2022/12/02 10:05:25;;;;;;;42.72;26.65;;;154.10;1996.80;;;;;;5054903;28;20032;-84
2022/12/02 10:07:54;;;;;;;34.08;24.75;;;154.10;2252.80;;;;;;5054623;28;20102;-84
2022/12/02 10:10:25;;;;;;;118.90;49.85;;;154.00;2252.80;;;;;;5055323;28;20021;-84
2022/12/02 10:12:52;;;;;;;96.85;53.65;;;154.00;2252.80;;;;;;5054462;28;20033;-83
2022/12/02 10:15:22;;;;;;;70.18;40.72;;;154.10;2252.80;;;;;;5053899;28;20096;-84
2022/12/02 10:17:48;;;;;;;39.25;26.08;;;154.10;2252.80;;;;;;5054805;28;20369;-83
2022/12/02 10:20:21;;;;;;;41.67;29.65;;;154.10;2252.80;;;;;;5053730;28;20025;-83
2022/12/02 10:23:11;;;;;;;48.17;29.58;;;154.30;2252.80;;;;;;5053340;28;20044;-85
2022/12/02 10:25:39;;;;;;;54.50;34.00;;;154.30;2252.80;;;;;;5053948;28;20358;-84
2022/12/02 10:28:20;;;;;;;44.95;30.55;;;154.30;2252.80;;;;;;5053552;28;20036;-84
2022/12/02 10:30:52;;;;;;;33.72;24.90;;;154.30;2252.80;;;;;;5053753;28;20051;-84
2022/12/02 10:33:23;;;;;;;78.63;41.47;;;154.40;2252.80;;;;;;5053548;28;20132;-81
2022/12/02 10:35:50;;;;;;;44.13;27.95;;;154.30;2252.80;;;;;;5053230;28;20029;-84
2022/12/02 10:38:32;;;;;;;44.97;27.13;;;154.30;2252.80;;;;;;5053451;28;20029;-84
2022/12/02 10:41:13;;;;;;;43.55;26.45;;;154.30;2252.80;;;;;;5054903;28;20112;-85
2022/12/02 10:43:43;;;;;;;37.92;25.55;;;154.40;2252.80;;;;;;5054971;28;20090;-86
2022/12/02 10:46:13;;;;;;;140.00;84.75;;;154.50;2252.80;;;;;;5053906;28;20029;-84
2022/12/02 10:48:40;;;;;;;49.33;35.42;;;154.50;2252.80;;;;;;5053994;28;20036;-83
2022/12/02 10:51:14;;;;;;;36.22;23.35;;;179.30;2252.80;;;;;;5053316;28;20051;-83
2022/12/02 10:53:41;;;;;;;37.60;22.20;;;179.30;2252.80;;;;;;5053699;28;20032;-81
2022/12/02 10:56:22;;;;;;;121.35;58.92;;;179.40;2252.80;;;;;;5054273;28;20103;-82
2022/12/02 10:58:50;;;;;;;41.10;28.83;;;179.40;2252.80;;;;;;5052969;28;20033;-83
2022/12/02 11:01:19;;;;;;;31.05;22.42;;;179.50;2252.80;;;;;;5053565;28;20383;-84
2022/12/02 11:03:46;;;;;;;24.75;18.08;;;179.50;2252.80;;;;;;5054376;28;20082;-86
2022/12/02 11:06:29;;;;;;;28.63;19.77;;;179.50;2252.80;;;;;;5055484;28;20032;-85
2022/12/02 11:08:56;;;;;;;26.83;16.63;;;179.40;2252.80;;;;;;5054109;28;20028;-84
2022/12/02 11:11:24;;;;;;;20.67;15.95;;;179.40;2252.80;;;;;;5055741;28;20028;-81
2022/12/02 11:14:02;;;;;;;22.42;15.90;;;179.40;2252.80;;;;;;5054740;28;20032;-82
2022/12/02 11:16:28;;;;;;;22.00;15.80;;;179.40;2252.80;;;;;;5053827;28;20025;-83
2022/12/02 11:19:05;;;;;;;34.47;19.70;;;179.50;2252.80;;;;;;5056513;28;20052;-78
2022/12/02 11:21:40;;;;;;;34.65;21.20;;;179.60;2252.80;;;;;;5056861;28;20126;-80
2022/12/02 11:24:21;;;;;;;28.88;20.17;;;179.70;2252.80;;;;;;5055544;28;20123;-81
2022/12/02 11:27:00;;;;;;;26.40;17.80;;;179.80;2252.80;;;;;;5053080;28;20021;-81
2022/12/02 11:29:27;;;;;;;25.92;17.15;;;179.90;2252.80;;;;;;5054131;28;20040;-83
2022/12/02 11:32:25;;;;;;;26.67;18.10;;;179.90;2252.80;;;;;;5053381;28;20061;-82
2022/12/02 11:34:59;;;;;;;34.90;22.88;;;180.10;2252.80;;;;;;5040582;28;20029;-83
2022/12/02 11:37:34;;;;;;;42.30;31.02;;;180.10;2252.80;;;;;;5067595;28;20413;-83
2022/12/02 11:40:06;;;;;;;30.38;23.35;;;179.90;2252.80;;;;;;5073088;28;20056;-83
2022/12/02 11:42:34;;;;;;;25.60;18.40;;;179.80;2252.80;;;;;;5073666;28;20032;-81
2022/12/02 11:45:14;;;;;;;45.83;33.30;;;179.80;2252.80;;;;;;5064675;28;20040;-81
2022/12/02 11:47:52;;;;;;;35.13;26.83;;;179.90;2252.80;;;;;;5053646;28;20128;-83
2022/12/02 11:50:29;;;;;;;30.52;22.73;;;179.90;2252.80;;;;;;5052314;28;20388;-84
2022/12/02 11:53:14;;;;;;;36.55;20.80;;;179.80;2252.80;;;;;;5052680;28;20068;-83
2022/12/02 11:55:48;;;;;;;29.95;20.73;;;179.80;2252.80;;;;;;5053918;28;20364;-82
2022/12/02 11:58:22;;;;;;;29.13;20.05;;;179.80;2252.80;;;;;;5069341;28;20043;-83
2022/12/02 12:01:14;;;;;;;31.38;22.50;;;179.80;2252.80;;;;;;5052216;28;20476;-82
2022/12/02 12:03:41;;;;;;;28.65;19.17;;;179.90;2252.80;;;;;;5069334;28;20121;-84
2022/12/02 12:06:19;;;;;;;26.80;19.40;;;180.00;2252.80;;;;;;5066795;28;20979;-83
2022/12/02 12:08:54;;;;;;;24.15;18.00;;;180.00;2252.80;;;;;;5081415;28;20030;-81
2022/12/02 12:11:34;;;;;;;25.50;14.70;;;180.10;2252.80;;;;;;5081171;28;20017;-83
2022/12/02 12:14:01;;;;;;;32.03;23.95;;;180.10;2252.80;;;;;;5072617;28;20033;-83